Terminal Aerodrome Forecast
Issued by NWS

Current Version | Previous Version | Text Only | Print | Product List | Glossary On
Versions: 1 2 3 4 5 6 7 8 9 10 11 12 13 14 15 16
000
FTUS46 KMTR 220500
TAFSJC
TAF
KSJC 220520Z 2206/2306 VRB03KT P6SM BKN015
     FM221000 VRB03KT 6SM BR BKN009 OVC015
     FM221800 31005KT P6SM SCT015 BKN035
     FM230300 VRB03KT P6SM SCT020 OVC030=

USA.gov is the U.S. government's official web portal to all federal, state and local government web resources and services.